sensor_id;sensor_type;location;lat;lon;timestamp;P1;durP1;ratioP1;P2;durP2;ratioP2
27999;SDS011;15328;50.860;10.562;2024-01-06T00:00:40;2.72;;;1.30;;
27999;SDS011;15328;50.860;10.562;2024-01-06T00:05:41;1.97;;;1.33;;
27999;SDS011;15328;50.860;10.562;2024-01-06T00:10:41;2.70;;;1.30;;
27999;SDS011;15328;50.860;10.562;2024-01-06T00:15:42;4.18;;;1.45;;
27999;SDS011;15328;50.860;10.562;2024-01-06T00:20:42;2.47;;;1.05;;
27999;SDS011;15328;50.860;10.562;2024-01-06T00:25:42;2.20;;;1.00;;
27999;SDS011;15328;50.860;10.562;2024-01-06T00:30:43;3.22;;;1.00;;
27999;SDS011;15328;50.860;10.562;2024-01-06T00:35:43;5.80;;;1.27;;
27999;SDS011;15328;50.860;10.562;2024-01-06T00:40:44;4.05;;;1.40;;
27999;SDS011;15328;50.860;10.562;2024-01-06T00:45:44;3.17;;;1.05;;
27999;SDS011;15328;50.860;10.562;2024-01-06T00:50:45;4.17;;;1.20;;
27999;SDS011;15328;50.860;10.562;2024-01-06T00:55:45;4.03;;;1.15;;
27999;SDS011;15328;50.860;10.562;2024-01-06T01:00:46;4.75;;;1.25;;
27999;SDS011;15328;50.860;10.562;2024-01-06T01:05:46;4.70;;;1.33;;
27999;SDS011;15328;50.860;10.562;2024-01-06T01:10:46;4.85;;;1.70;;
27999;SDS011;15328;50.860;10.562;2024-01-06T01:15:47;3.58;;;1.10;;
27999;SDS011;15328;50.860;10.562;2024-01-06T01:20:47;6.45;;;1.30;;
27999;SDS011;15328;50.860;10.562;2024-01-06T01:25:48;11.00;;;6.82;;
27999;SDS011;15328;50.860;10.562;2024-01-06T01:30:48;5.07;;;2.33;;
27999;SDS011;15328;50.860;10.562;2024-01-06T01:35:48;6.23;;;3.30;;
27999;SDS011;15328;50.860;10.562;2024-01-06T01:40:49;5.30;;;1.87;;
27999;SDS011;15328;50.860;10.562;2024-01-06T01:45:55;5.37;;;1.50;;
27999;SDS011;15328;50.860;10.562;2024-01-06T01:50:56;3.47;;;1.13;;
27999;SDS011;15328;50.860;10.562;2024-01-06T01:55:56;4.38;;;1.35;;
27999;SDS011;15328;50.860;10.562;2024-01-06T02:00:57;4.15;;;1.30;;
27999;SDS011;15328;50.860;10.562;2024-01-06T02:05:57;6.30;;;1.00;;
27999;SDS011;15328;50.860;10.562;2024-01-06T02:10:58;2.85;;;1.20;;
27999;SDS011;15328;50.860;10.562;2024-01-06T02:15:58;2.30;;;1.00;;
27999;SDS011;15328;50.860;10.562;2024-01-06T02:21:00;4.22;;;1.17;;
27999;SDS011;15328;50.860;10.562;2024-01-06T02:26:02;2.35;;;1.05;;
27999;SDS011;15328;50.860;10.562;2024-01-06T02:31:03;2.95;;;1.17;;
27999;SDS011;15328;50.860;10.562;2024-01-06T02:36:03;3.65;;;1.40;;
27999;SDS011;15328;50.860;10.562;2024-01-06T02:41:04;5.10;;;1.48;;
27999;SDS011;15328;50.860;10.562;2024-01-06T02:46:06;2.65;;;1.27;;
27999;SDS011;15328;50.860;10.562;2024-01-06T02:51:08;7.20;;;1.58;;
27999;SDS011;15328;50.860;10.562;2024-01-06T02:56:11;4.88;;;1.27;;
27999;SDS011;15328;50.860;10.562;2024-01-06T03:01:15;2.92;;;1.20;;
27999;SDS011;15328;50.860;10.562;2024-01-06T03:06:15;3.83;;;1.30;;
27999;SDS011;15328;50.860;10.562;2024-01-06T03:11:15;3.60;;;1.20;;
27999;SDS011;15328;50.860;10.562;2024-01-06T03:16:16;2.97;;;1.10;;
27999;SDS011;15328;50.860;10.562;2024-01-06T03:21:19;2.70;;;1.10;;
27999;SDS011;15328;50.860;10.562;2024-01-06T03:26:20;1.85;;;1.15;;
27999;SDS011;15328;50.860;10.562;2024-01-06T03:31:21;4.28;;;1.40;;
27999;SDS011;15328;50.860;10.562;2024-01-06T03:36:22;3.28;;;1.27;;
27999;SDS011;15328;50.860;10.562;2024-01-06T03:41:22;2.17;;;1.05;;
27999;SDS011;15328;50.860;10.562;2024-01-06T03:46:23;2.50;;;1.20;;
27999;SDS011;15328;50.860;10.562;2024-01-06T03:51:23;1.45;;;0.85;;
27999;SDS011;15328;50.860;10.562;2024-01-06T03:56:24;3.17;;;1.40;;
27999;SDS011;15328;50.860;10.562;2024-01-06T04:01:24;3.43;;;1.20;;
27999;SDS011;15328;50.860;10.562;2024-01-06T04:06:24;3.50;;;1.33;;
27999;SDS011;15328;50.860;10.562;2024-01-06T04:11:25;2.33;;;1.45;;
27999;SDS011;15328;50.860;10.562;2024-01-06T04:16:26;6.00;;;1.70;;
27999;SDS011;15328;50.860;10.562;2024-01-06T04:21:27;5.82;;;1.83;;
27999;SDS011;15328;50.860;10.562;2024-01-06T04:26:27;3.43;;;1.67;;
27999;SDS011;15328;50.860;10.562;2024-01-06T04:31:28;4.40;;;1.60;;
27999;SDS011;15328;50.860;10.562;2024-01-06T04:36:28;6.73;;;1.70;;
27999;SDS011;15328;50.860;10.562;2024-01-06T04:41:29;4.63;;;1.70;;
27999;SDS011;15328;50.860;10.562;2024-01-06T04:46:29;2.47;;;1.52;;
27999;SDS011;15328;50.860;10.562;2024-01-06T04:51:30;3.00;;;1.77;;
27999;SDS011;15328;50.860;10.562;2024-01-06T04:56:31;4.13;;;1.70;;
27999;SDS011;15328;50.860;10.562;2024-01-06T05:01:31;5.13;;;1.80;;
27999;SDS011;15328;50.860;10.562;2024-01-06T05:06:31;4.00;;;1.85;;
27999;SDS011;15328;50.860;10.562;2024-01-06T05:11:32;4.32;;;1.52;;
27999;SDS011;15328;50.860;10.562;2024-01-06T05:16:32;6.30;;;1.80;;
27999;SDS011;15328;50.860;10.562;2024-01-06T05:21:33;6.27;;;1.80;;
27999;SDS011;15328;50.860;10.562;2024-01-06T05:26:34;3.97;;;1.45;;
27999;SDS011;15328;50.860;10.562;2024-01-06T05:31:34;5.50;;;2.00;;
27999;SDS011;15328;50.860;10.562;2024-01-06T05:36:34;5.05;;;1.75;;
27999;SDS011;15328;50.860;10.562;2024-01-06T05:41:38;5.15;;;2.17;;
27999;SDS011;15328;50.860;10.562;2024-01-06T05:46:39;4.45;;;1.67;;
27999;SDS011;15328;50.860;10.562;2024-01-06T05:51:46;6.30;;;1.80;;
27999;SDS011;15328;50.860;10.562;2024-01-06T05:56:46;3.47;;;1.30;;
27999;SDS011;15328;50.860;10.562;2024-01-06T06:01:47;5.88;;;1.50;;
27999;SDS011;15328;50.860;10.562;2024-01-06T06:06:47;3.90;;;1.38;;
27999;SDS011;15328;50.860;10.562;2024-01-06T06:11:47;2.55;;;1.52;;
27999;SDS011;15328;50.860;10.562;2024-01-06T06:16:48;4.15;;;1.58;;
27999;SDS011;15328;50.860;10.562;2024-01-06T06:21:49;2.78;;;1.40;;
27999;SDS011;15328;50.860;10.562;2024-01-06T06:26:49;3.13;;;1.50;;
27999;SDS011;15328;50.860;10.562;2024-01-06T06:31:49;2.77;;;1.43;;
27999;SDS011;15328;50.860;10.562;2024-01-06T06:36:50;2.97;;;1.23;;
27999;SDS011;15328;50.860;10.562;2024-01-06T06:41:50;2.03;;;1.03;;
27999;SDS011;15328;50.860;10.562;2024-01-06T06:46:50;2.97;;;1.57;;
27999;SDS011;15328;50.860;10.562;2024-01-06T06:51:50;4.60;;;1.60;;
27999;SDS011;15328;50.860;10.562;2024-01-06T06:56:51;2.70;;;1.48;;
27999;SDS011;15328;50.860;10.562;2024-01-06T07:01:51;2.53;;;1.35;;
27999;SDS011;15328;50.860;10.562;2024-01-06T07:06:52;3.08;;;1.50;;
27999;SDS011;15328;50.860;10.562;2024-01-06T07:11:52;3.00;;;1.40;;
27999;SDS011;15328;50.860;10.562;2024-01-06T07:16:52;3.72;;;1.73;;
27999;SDS011;15328;50.860;10.562;2024-01-06T07:21:53;5.20;;;2.37;;
27999;SDS011;15328;50.860;10.562;2024-01-06T07:26:53;13.30;;;6.43;;
27999;SDS011;15328;50.860;10.562;2024-01-06T07:31:55;12.95;;;6.43;;
27999;SDS011;15328;50.860;10.562;2024-01-06T07:36:56;10.85;;;5.22;;
27999;SDS011;15328;50.860;10.562;2024-01-06T07:41:57;9.70;;;4.05;;
27999;SDS011;15328;50.860;10.562;2024-01-06T07:46:57;20.13;;;9.20;;
27999;SDS011;15328;50.860;10.562;2024-01-06T07:51:58;20.00;;;9.57;;
27999;SDS011;15328;50.860;10.562;2024-01-06T07:56:58;16.58;;;8.35;;
27999;SDS011;15328;50.860;10.562;2024-01-06T08:01:59;17.55;;;8.25;;
27999;SDS011;15328;50.860;10.562;2024-01-06T08:06:59;13.65;;;6.80;;
27999;SDS011;15328;50.860;10.562;2024-01-06T08:12:00;11.10;;;4.30;;
27999;SDS011;15328;50.860;10.562;2024-01-06T08:17:02;6.53;;;3.40;;
27999;SDS011;15328;50.860;10.562;2024-01-06T08:22:03;5.75;;;3.13;;
27999;SDS011;15328;50.860;10.562;2024-01-06T08:27:03;5.88;;;2.80;;
27999;SDS011;15328;50.860;10.562;2024-01-06T08:32:04;6.25;;;2.90;;
27999;SDS011;15328;50.860;10.562;2024-01-06T08:37:05;5.55;;;3.15;;
27999;SDS011;15328;50.860;10.562;2024-01-06T08:42:05;5.03;;;2.45;;
27999;SDS011;15328;50.860;10.562;2024-01-06T08:47:06;4.00;;;2.05;;
27999;SDS011;15328;50.860;10.562;2024-01-06T08:52:06;2.97;;;1.73;;
27999;SDS011;15328;50.860;10.562;2024-01-06T08:57:07;3.30;;;1.77;;
27999;SDS011;15328;50.860;10.562;2024-01-06T09:02:08;3.83;;;1.70;;
27999;SDS011;15328;50.860;10.562;2024-01-06T09:07:08;4.55;;;2.53;;
27999;SDS011;15328;50.860;10.562;2024-01-06T09:12:10;4.50;;;2.45;;
27999;SDS011;15328;50.860;10.562;2024-01-06T09:17:11;21.17;;;6.47;;
27999;SDS011;15328;50.860;10.562;2024-01-06T09:22:12;13.85;;;4.97;;
27999;SDS011;15328;50.860;10.562;2024-01-06T09:27:13;13.52;;;4.68;;
27999;SDS011;15328;50.860;10.562;2024-01-06T09:32:14;8.88;;;3.40;;
27999;SDS011;15328;50.860;10.562;2024-01-06T09:37:15;4.57;;;2.40;;
27999;SDS011;15328;50.860;10.562;2024-01-06T09:42:15;6.00;;;2.20;;
27999;SDS011;15328;50.860;10.562;2024-01-06T09:47:16;3.85;;;1.85;;
27999;SDS011;15328;50.860;10.562;2024-01-06T09:52:20;2.63;;;1.70;;
27999;SDS011;15328;50.860;10.562;2024-01-06T09:57:22;2.13;;;1.58;;
27999;SDS011;15328;50.860;10.562;2024-01-06T10:02:23;3.95;;;1.55;;
27999;SDS011;15328;50.860;10.562;2024-01-06T10:07:28;1.85;;;1.30;;
27999;SDS011;15328;50.860;10.562;2024-01-06T10:12:28;2.80;;;1.48;;
27999;SDS011;15328;50.860;10.562;2024-01-06T10:17:30;3.53;;;2.03;;
27999;SDS011;15328;50.860;10.562;2024-01-06T10:22:30;4.30;;;2.03;;
27999;SDS011;15328;50.860;10.562;2024-01-06T10:27:33;5.10;;;2.42;;
27999;SDS011;15328;50.860;10.562;2024-01-06T10:32:37;5.50;;;2.67;;
27999;SDS011;15328;50.860;10.562;2024-01-06T10:37:41;5.75;;;2.65;;
27999;SDS011;15328;50.860;10.562;2024-01-06T10:42:43;6.18;;;2.70;;
27999;SDS011;15328;50.860;10.562;2024-01-06T10:47:45;7.43;;;3.78;;
27999;SDS011;15328;50.860;10.562;2024-01-06T10:52:47;9.05;;;3.53;;
27999;SDS011;15328;50.860;10.562;2024-01-06T10:57:48;6.13;;;3.10;;
27999;SDS011;15328;50.860;10.562;2024-01-06T11:02:54;5.55;;;3.10;;
27999;SDS011;15328;50.860;10.562;2024-01-06T11:07:56;7.25;;;2.92;;
27999;SDS011;15328;50.860;10.562;2024-01-06T11:13:43;5.40;;;3.00;;
27999;SDS011;15328;50.860;10.562;2024-01-06T11:23:37;11.90;;;4.95;;
27999;SDS011;15328;50.860;10.562;2024-01-06T11:28:47;6.80;;;3.87;;
27999;SDS011;15328;50.860;10.562;2024-01-06T11:33:47;6.57;;;3.30;;
27999;SDS011;15328;50.860;10.562;2024-01-06T11:38:51;6.90;;;4.20;;
27999;SDS011;15328;50.860;10.562;2024-01-06T11:43:52;5.20;;;3.03;;
27999;SDS011;15328;50.860;10.562;2024-01-06T11:48:52;8.15;;;3.08;;
27999;SDS011;15328;50.860;10.562;2024-01-06T11:53:53;5.65;;;2.92;;
27999;SDS011;15328;50.860;10.562;2024-01-06T11:58:54;9.27;;;3.58;;
27999;SDS011;15328;50.860;10.562;2024-01-06T12:03:55;6.47;;;3.80;;
27999;SDS011;15328;50.860;10.562;2024-01-06T12:09:06;7.00;;;3.65;;
27999;SDS011;15328;50.860;10.562;2024-01-06T12:14:07;5.68;;;3.30;;
27999;SDS011;15328;50.860;10.562;2024-01-06T12:19:07;7.43;;;4.30;;
27999;SDS011;15328;50.860;10.562;2024-01-06T12:24:18;7.07;;;4.40;;
27999;SDS011;15328;50.860;10.562;2024-01-06T12:29:22;6.38;;;4.15;;
27999;SDS011;15328;50.860;10.562;2024-01-06T12:34:22;3.80;;;2.60;;
27999;SDS011;15328;50.860;10.562;2024-01-06T12:39:22;7.60;;;2.90;;
27999;SDS011;15328;50.860;10.562;2024-01-06T12:44:27;5.75;;;3.30;;
27999;SDS011;15328;50.860;10.562;2024-01-06T12:49:28;6.88;;;3.53;;
27999;SDS011;15328;50.860;10.562;2024-01-06T12:54:29;5.88;;;3.08;;
27999;SDS011;15328;50.860;10.562;2024-01-06T12:59:29;6.83;;;3.07;;
27999;SDS011;15328;50.860;10.562;2024-01-06T13:04:30;5.68;;;2.75;;
27999;SDS011;15328;50.860;10.562;2024-01-06T13:09:31;5.13;;;3.10;;
27999;SDS011;15328;50.860;10.562;2024-01-06T13:14:31;4.40;;;2.78;;
27999;SDS011;15328;50.860;10.562;2024-01-06T13:19:32;5.13;;;2.83;;
27999;SDS011;15328;50.860;10.562;2024-01-06T13:24:34;15.52;;;4.00;;
27999;SDS011;15328;50.860;10.562;2024-01-06T13:29:34;5.75;;;3.03;;
27999;SDS011;15328;50.860;10.562;2024-01-06T13:34:35;6.65;;;2.83;;
27999;SDS011;15328;50.860;10.562;2024-01-06T13:39:36;5.00;;;2.50;;
27999;SDS011;15328;50.860;10.562;2024-01-06T13:44:36;17.40;;;7.90;;
27999;SDS011;15328;50.860;10.562;2024-01-06T13:49:37;13.73;;;6.93;;
27999;SDS011;15328;50.860;10.562;2024-01-06T13:54:37;10.33;;;4.33;;
27999;SDS011;15328;50.860;10.562;2024-01-06T13:59:38;8.70;;;4.30;;
27999;SDS011;15328;50.860;10.562;2024-01-06T14:04:42;7.63;;;4.38;;
27999;SDS011;15328;50.860;10.562;2024-01-06T14:09:42;9.02;;;5.47;;
27999;SDS011;15328;50.860;10.562;2024-01-06T14:14:43;10.80;;;5.05;;
27999;SDS011;15328;50.860;10.562;2024-01-06T14:19:43;7.55;;;4.43;;
27999;SDS011;15328;50.860;10.562;2024-01-06T14:24:44;9.47;;;4.60;;
27999;SDS011;15328;50.860;10.562;2024-01-06T14:29:44;9.48;;;5.32;;
27999;SDS011;15328;50.860;10.562;2024-01-06T14:34:45;8.27;;;5.38;;
27999;SDS011;15328;50.860;10.562;2024-01-06T14:39:45;10.90;;;5.80;;
27999;SDS011;15328;50.860;10.562;2024-01-06T14:44:46;20.15;;;8.93;;
27999;SDS011;15328;50.860;10.562;2024-01-06T14:49:46;19.45;;;9.15;;
27999;SDS011;15328;50.860;10.562;2024-01-06T14:54:46;14.77;;;8.83;;
27999;SDS011;15328;50.860;10.562;2024-01-06T14:59:48;16.38;;;8.45;;
27999;SDS011;15328;50.860;10.562;2024-01-06T15:04:49;15.53;;;7.60;;
27999;SDS011;15328;50.860;10.562;2024-01-06T15:09:49;23.03;;;11.67;;
27999;SDS011;15328;50.860;10.562;2024-01-06T15:14:49;12.40;;;7.50;;
27999;SDS011;15328;50.860;10.562;2024-01-06T15:19:50;13.75;;;6.93;;
27999;SDS011;15328;50.860;10.562;2024-01-06T15:24:50;11.82;;;6.00;;
27999;SDS011;15328;50.860;10.562;2024-01-06T15:29:51;14.82;;;6.53;;
27999;SDS011;15328;50.860;10.562;2024-01-06T15:34:51;9.55;;;5.50;;
27999;SDS011;15328;50.860;10.562;2024-01-06T15:39:51;6.90;;;4.33;;
27999;SDS011;15328;50.860;10.562;2024-01-06T15:44:52;6.85;;;4.40;;
27999;SDS011;15328;50.860;10.562;2024-01-06T15:49:52;9.43;;;4.80;;
27999;SDS011;15328;50.860;10.562;2024-01-06T15:54:53;21.45;;;12.38;;
27999;SDS011;15328;50.860;10.562;2024-01-06T15:59:54;27.48;;;17.10;;
27999;SDS011;15328;50.860;10.562;2024-01-06T16:04:54;32.15;;;19.55;;
27999;SDS011;15328;50.860;10.562;2024-01-06T16:09:54;22.73;;;15.30;;
27999;SDS011;15328;50.860;10.562;2024-01-06T16:14:55;16.10;;;10.68;;
27999;SDS011;15328;50.860;10.562;2024-01-06T16:19:55;13.35;;;8.35;;
27999;SDS011;15328;50.860;10.562;2024-01-06T16:24:56;11.97;;;7.40;;
27999;SDS011;15328;50.860;10.562;2024-01-06T16:29:57;12.48;;;7.60;;
27999;SDS011;15328;50.860;10.562;2024-01-06T16:34:58;12.87;;;7.33;;
27999;SDS011;15328;50.860;10.562;2024-01-06T16:39:58;11.57;;;6.80;;
27999;SDS011;15328;50.860;10.562;2024-01-06T16:44:59;11.15;;;6.60;;
27999;SDS011;15328;50.860;10.562;2024-01-06T16:49:59;11.40;;;7.28;;
27999;SDS011;15328;50.860;10.562;2024-01-06T16:55:00;10.53;;;6.60;;
27999;SDS011;15328;50.860;10.562;2024-01-06T17:00:01;14.25;;;8.10;;
27999;SDS011;15328;50.860;10.562;2024-01-06T17:05:02;14.38;;;8.75;;
27999;SDS011;15328;50.860;10.562;2024-01-06T17:10:03;18.60;;;9.73;;
27999;SDS011;15328;50.860;10.562;2024-01-06T17:15:04;21.33;;;10.27;;
27999;SDS011;15328;50.860;10.562;2024-01-06T17:20:05;20.52;;;10.20;;
27999;SDS011;15328;50.860;10.562;2024-01-06T17:25:06;15.63;;;8.63;;
27999;SDS011;15328;50.860;10.562;2024-01-06T17:30:10;14.57;;;8.15;;
27999;SDS011;15328;50.860;10.562;2024-01-06T17:35:10;30.48;;;15.93;;
27999;SDS011;15328;50.860;10.562;2024-01-06T17:40:11;28.42;;;15.82;;
27999;SDS011;15328;50.860;10.562;2024-01-06T17:45:12;18.23;;;11.38;;
27999;SDS011;15328;50.860;10.562;2024-01-06T17:50:12;15.48;;;9.48;;
27999;SDS011;15328;50.860;10.562;2024-01-06T17:55:13;16.83;;;9.05;;
27999;SDS011;15328;50.860;10.562;2024-01-06T18:00:15;14.63;;;7.97;;
27999;SDS011;15328;50.860;10.562;2024-01-06T18:05:16;12.98;;;7.05;;
27999;SDS011;15328;50.860;10.562;2024-01-06T18:10:16;11.07;;;6.40;;
27999;SDS011;15328;50.860;10.562;2024-01-06T18:15:17;12.55;;;7.03;;
27999;SDS011;15328;50.860;10.562;2024-01-06T18:20:17;17.60;;;8.50;;
27999;SDS011;15328;50.860;10.562;2024-01-06T18:25:21;15.05;;;7.63;;
27999;SDS011;15328;50.860;10.562;2024-01-06T18:30:21;12.83;;;6.97;;
27999;SDS011;15328;50.860;10.562;2024-01-06T18:35:21;14.05;;;7.38;;
27999;SDS011;15328;50.860;10.562;2024-01-06T18:40:22;12.20;;;7.57;;
27999;SDS011;15328;50.860;10.562;2024-01-06T18:45:22;14.63;;;8.60;;
27999;SDS011;15328;50.860;10.562;2024-01-06T18:50:23;14.85;;;9.68;;
27999;SDS011;15328;50.860;10.562;2024-01-06T18:55:23;19.15;;;12.07;;
27999;SDS011;15328;50.860;10.562;2024-01-06T19:00:24;20.13;;;12.03;;
27999;SDS011;15328;50.860;10.562;2024-01-06T19:05:24;18.25;;;12.43;;
27999;SDS011;15328;50.860;10.562;2024-01-06T19:10:24;19.38;;;12.57;;
27999;SDS011;15328;50.860;10.562;2024-01-06T19:15:25;17.40;;;11.93;;
27999;SDS011;15328;50.860;10.562;2024-01-06T19:20:25;19.87;;;13.40;;
27999;SDS011;15328;50.860;10.562;2024-01-06T19:25:25;19.17;;;13.03;;
27999;SDS011;15328;50.860;10.562;2024-01-06T19:30:26;15.68;;;10.60;;
27999;SDS011;15328;50.860;10.562;2024-01-06T19:35:26;21.80;;;14.20;;
27999;SDS011;15328;50.860;10.562;2024-01-06T19:40:27;22.02;;;15.07;;
27999;SDS011;15328;50.860;10.562;2024-01-06T19:45:27;22.63;;;15.20;;
27999;SDS011;15328;50.860;10.562;2024-01-06T19:50:28;25.42;;;16.15;;
27999;SDS011;15328;50.860;10.562;2024-01-06T19:55:28;23.33;;;15.47;;
27999;SDS011;15328;50.860;10.562;2024-01-06T20:00:29;26.23;;;16.37;;
27999;SDS011;15328;50.860;10.562;2024-01-06T20:05:30;29.88;;;18.20;;
27999;SDS011;15328;50.860;10.562;2024-01-06T20:10:30;28.40;;;17.77;;
27999;SDS011;15328;50.860;10.562;2024-01-06T20:15:31;31.65;;;19.13;;
27999;SDS011;15328;50.860;10.562;2024-01-06T20:20:32;30.95;;;18.40;;
27999;SDS011;15328;50.860;10.562;2024-01-06T20:25:32;32.40;;;18.63;;
27999;SDS011;15328;50.860;10.562;2024-01-06T20:30:32;34.03;;;19.85;;
27999;SDS011;15328;50.860;10.562;2024-01-06T20:35:33;31.92;;;18.38;;
27999;SDS011;15328;50.860;10.562;2024-01-06T20:40:33;36.80;;;21.20;;
27999;SDS011;15328;50.860;10.562;2024-01-06T20:45:34;29.75;;;17.80;;
27999;SDS011;15328;50.860;10.562;2024-01-06T20:50:34;32.93;;;17.80;;
27999;SDS011;15328;50.860;10.562;2024-01-06T20:55:35;27.50;;;15.55;;
27999;SDS011;15328;50.860;10.562;2024-01-06T21:00:36;28.15;;;16.42;;
27999;SDS011;15328;50.860;10.562;2024-01-06T21:05:37;30.58;;;17.00;;
27999;SDS011;15328;50.860;10.562;2024-01-06T21:10:37;31.10;;;17.38;;
27999;SDS011;15328;50.860;10.562;2024-01-06T21:15:38;31.95;;;17.30;;
27999;SDS011;15328;50.860;10.562;2024-01-06T21:20:38;31.10;;;16.30;;
27999;SDS011;15328;50.860;10.562;2024-01-06T21:25:39;31.38;;;17.35;;
27999;SDS011;15328;50.860;10.562;2024-01-06T21:30:39;31.73;;;16.88;;
27999;SDS011;15328;50.860;10.562;2024-01-06T21:35:40;33.20;;;17.87;;
27999;SDS011;15328;50.860;10.562;2024-01-06T21:40:40;30.75;;;17.05;;
27999;SDS011;15328;50.860;10.562;2024-01-06T21:45:42;31.70;;;17.17;;
27999;SDS011;15328;50.860;10.562;2024-01-06T21:50:42;30.95;;;15.88;;
27999;SDS011;15328;50.860;10.562;2024-01-06T21:55:43;29.60;;;15.70;;
27999;SDS011;15328;50.860;10.562;2024-01-06T22:00:44;29.80;;;15.55;;
27999;SDS011;15328;50.860;10.562;2024-01-06T22:05:44;30.17;;;15.48;;
27999;SDS011;15328;50.860;10.562;2024-01-06T22:10:45;28.17;;;14.52;;
27999;SDS011;15328;50.860;10.562;2024-01-06T22:15:45;25.92;;;13.63;;
27999;SDS011;15328;50.860;10.562;2024-01-06T22:20:46;28.70;;;14.57;;
27999;SDS011;15328;50.860;10.562;2024-01-06T22:25:46;31.73;;;15.57;;
27999;SDS011;15328;50.860;10.562;2024-01-06T22:30:46;28.77;;;14.98;;
27999;SDS011;15328;50.860;10.562;2024-01-06T22:35:47;28.13;;;14.93;;
27999;SDS011;15328;50.860;10.562;2024-01-06T22:40:47;29.63;;;14.30;;
27999;SDS011;15328;50.860;10.562;2024-01-06T22:45:47;33.17;;;15.33;;
27999;SDS011;15328;50.860;10.562;2024-01-06T22:50:48;32.80;;;16.05;;
27999;SDS011;15328;50.860;10.562;2024-01-06T22:55:48;31.63;;;14.93;;
27999;SDS011;15328;50.860;10.562;2024-01-06T23:00:48;28.70;;;14.80;;
27999;SDS011;15328;50.860;10.562;2024-01-06T23:05:49;29.33;;;14.13;;
27999;SDS011;15328;50.860;10.562;2024-01-06T23:10:49;27.45;;;14.23;;
27999;SDS011;15328;50.860;10.562;2024-01-06T23:15:50;25.40;;;13.23;;
27999;SDS011;15328;50.860;10.562;2024-01-06T23:20:53;24.55;;;12.63;;
27999;SDS011;15328;50.860;10.562;2024-01-06T23:25:53;29.63;;;14.23;;
27999;SDS011;15328;50.860;10.562;2024-01-06T23:30:54;28.42;;;13.18;;
27999;SDS011;15328;50.860;10.562;2024-01-06T23:35:54;26.67;;;13.55;;
27999;SDS011;15328;50.860;10.562;2024-01-06T23:40:54;28.33;;;13.63;;
27999;SDS011;15328;50.860;10.562;2024-01-06T23:45:55;27.95;;;13.30;;
27999;SDS011;15328;50.860;10.562;2024-01-06T23:50:57;26.60;;;12.95;;
27999;SDS011;15328;50.860;10.562;2024-01-06T23:55:58;28.88;;;13.50;;
